sensor_id;sensor_type;location;lat;lon;timestamp;temperature;humidity
24772;DHT22;12870;52.274;9.754;2023-06-10T00:01:49;17.70;99.90
24772;DHT22;12870;52.274;9.754;2023-06-10T00:04:16;17.60;99.90
24772;DHT22;12870;52.274;9.754;2023-06-10T00:06:44;17.50;99.90
24772;DHT22;12870;52.274;9.754;2023-06-10T00:09:10;17.40;99.90
24772;DHT22;12870;52.274;9.754;2023-06-10T00:11:37;17.30;99.90
24772;DHT22;12870;52.274;9.754;2023-06-10T00:14:03;17.30;99.90
24772;DHT22;12870;52.274;9.754;2023-06-10T00:16:29;17.20;99.90
24772;DHT22;12870;52.274;9.754;2023-06-10T00:18:54;17.10;99.90
24772;DHT22;12870;52.274;9.754;2023-06-10T00:21:30;17.00;99.90
24772;DHT22;12870;52.274;9.754;2023-06-10T00:24:09;16.90;99.90
24772;DHT22;12870;52.274;9.754;2023-06-10T00:26:41;16.90;99.90
24772;DHT22;12870;52.274;9.754;2023-06-10T00:29:07;16.80;99.90
24772;DHT22;12870;52.274;9.754;2023-06-10T00:31:37;16.70;99.90
24772;DHT22;12870;52.274;9.754;2023-06-10T00:34:03;16.70;99.90
24772;DHT22;12870;52.274;9.754;2023-06-10T00:36:29;16.60;99.90
24772;DHT22;12870;52.274;9.754;2023-06-10T00:38:56;16.50;99.90
24772;DHT22;12870;52.274;9.754;2023-06-10T00:41:22;16.40;99.90
24772;DHT22;12870;52.274;9.754;2023-06-10T00:43:48;16.40;99.90
24772;DHT22;12870;52.274;9.754;2023-06-10T00:46:14;16.40;99.90
24772;DHT22;12870;52.274;9.754;2023-06-10T00:48:41;16.30;99.90
24772;DHT22;12870;52.274;9.754;2023-06-10T00:51:08;16.30;99.90
24772;DHT22;12870;52.274;9.754;2023-06-10T00:53:39;16.30;99.90
24772;DHT22;12870;52.274;9.754;2023-06-10T00:56:05;16.30;99.90
24772;DHT22;12870;52.274;9.754;2023-06-10T00:58:31;16.30;99.90
24772;DHT22;12870;52.274;9.754;2023-06-10T01:00:57;16.30;99.90
24772;DHT22;12870;52.274;9.754;2023-06-10T01:03:23;16.30;99.90
24772;DHT22;12870;52.274;9.754;2023-06-10T01:05:55;16.20;99.90
24772;DHT22;12870;52.274;9.754;2023-06-10T01:11:28;16.20;99.90
24772;DHT22;12870;52.274;9.754;2023-06-10T01:13:55;16.10;99.90
24772;DHT22;12870;52.274;9.754;2023-06-10T01:16:22;16.00;99.90
24772;DHT22;12870;52.274;9.754;2023-06-10T01:18:48;16.00;99.90
24772;DHT22;12870;52.274;9.754;2023-06-10T01:21:23;16.00;99.90
24772;DHT22;12870;52.274;9.754;2023-06-10T01:23:51;15.90;99.90
24772;DHT22;12870;52.274;9.754;2023-06-10T01:26:20;15.90;99.90
24772;DHT22;12870;52.274;9.754;2023-06-10T01:28:51;15.80;99.90
24772;DHT22;12870;52.274;9.754;2023-06-10T01:31:42;15.80;99.90
24772;DHT22;12870;52.274;9.754;2023-06-10T01:34:10;15.70;99.90
24772;DHT22;12870;52.274;9.754;2023-06-10T01:36:38;15.70;99.90
24772;DHT22;12870;52.274;9.754;2023-06-10T01:39:05;15.70;99.90
24772;DHT22;12870;52.274;9.754;2023-06-10T01:41:34;15.80;99.90
24772;DHT22;12870;52.274;9.754;2023-06-10T01:44:00;15.70;99.90
24772;DHT22;12870;52.274;9.754;2023-06-10T01:46:26;15.70;99.90
24772;DHT22;12870;52.274;9.754;2023-06-10T01:48:52;15.70;99.90
24772;DHT22;12870;52.274;9.754;2023-06-10T01:51:17;15.70;99.90
24772;DHT22;12870;52.274;9.754;2023-06-10T01:53:43;15.60;99.90
24772;DHT22;12870;52.274;9.754;2023-06-10T01:56:09;15.60;99.90
24772;DHT22;12870;52.274;9.754;2023-06-10T01:58:35;15.50;99.90
24772;DHT22;12870;52.274;9.754;2023-06-10T02:01:01;15.50;99.90
24772;DHT22;12870;52.274;9.754;2023-06-10T02:03:26;15.50;99.90
24772;DHT22;12870;52.274;9.754;2023-06-10T02:05:52;15.50;99.90
24772;DHT22;12870;52.274;9.754;2023-06-10T02:08:18;15.40;99.90
24772;DHT22;12870;52.274;9.754;2023-06-10T02:10:43;15.40;99.90
24772;DHT22;12870;52.274;9.754;2023-06-10T02:13:09;15.30;99.90
24772;DHT22;12870;52.274;9.754;2023-06-10T02:15:35;15.30;99.90
24772;DHT22;12870;52.274;9.754;2023-06-10T02:18:00;15.30;99.90
24772;DHT22;12870;52.274;9.754;2023-06-10T02:20:26;15.20;99.90
24772;DHT22;12870;52.274;9.754;2023-06-10T02:22:52;15.20;99.90
24772;DHT22;12870;52.274;9.754;2023-06-10T02:25:18;15.20;99.90
24772;DHT22;12870;52.274;9.754;2023-06-10T02:27:43;15.10;99.90
24772;DHT22;12870;52.274;9.754;2023-06-10T02:30:10;15.10;99.90
24772;DHT22;12870;52.274;9.754;2023-06-10T02:32:36;15.00;99.90
24772;DHT22;12870;52.274;9.754;2023-06-10T02:35:01;15.00;99.90
24772;DHT22;12870;52.274;9.754;2023-06-10T02:37:27;14.90;99.90
24772;DHT22;12870;52.274;9.754;2023-06-10T02:39:53;14.80;99.90
24772;DHT22;12870;52.274;9.754;2023-06-10T02:42:18;14.80;99.90
24772;DHT22;12870;52.274;9.754;2023-06-10T02:44:44;14.80;99.90
24772;DHT22;12870;52.274;9.754;2023-06-10T02:47:10;14.80;99.90
24772;DHT22;12870;52.274;9.754;2023-06-10T02:49:36;14.70;99.90
24772;DHT22;12870;52.274;9.754;2023-06-10T02:52:02;14.60;99.90
24772;DHT22;12870;52.274;9.754;2023-06-10T02:54:27;14.60;99.90
24772;DHT22;12870;52.274;9.754;2023-06-10T02:56:54;14.60;99.90
24772;DHT22;12870;52.274;9.754;2023-06-10T02:59:21;14.50;99.90
24772;DHT22;12870;52.274;9.754;2023-06-10T03:01:47;14.50;99.90
24772;DHT22;12870;52.274;9.754;2023-06-10T03:04:13;14.40;99.90
24772;DHT22;12870;52.274;9.754;2023-06-10T03:06:40;14.40;99.90
24772;DHT22;12870;52.274;9.754;2023-06-10T03:09:10;14.50;99.90
24772;DHT22;12870;52.274;9.754;2023-06-10T03:11:36;14.50;99.90
24772;DHT22;12870;52.274;9.754;2023-06-10T03:14:02;14.50;99.90
24772;DHT22;12870;52.274;9.754;2023-06-10T03:16:28;14.50;99.90
24772;DHT22;12870;52.274;9.754;2023-06-10T03:18:55;14.50;99.90
24772;DHT22;12870;52.274;9.754;2023-06-10T03:21:21;14.50;99.90
24772;DHT22;12870;52.274;9.754;2023-06-10T03:23:47;14.50;99.90
24772;DHT22;12870;52.274;9.754;2023-06-10T03:26:13;14.50;99.90
24772;DHT22;12870;52.274;9.754;2023-06-10T03:28:39;14.40;99.90
24772;DHT22;12870;52.274;9.754;2023-06-10T03:31:05;14.40;99.90
24772;DHT22;12870;52.274;9.754;2023-06-10T03:33:31;14.30;99.90
24772;DHT22;12870;52.274;9.754;2023-06-10T03:35:56;14.30;99.90
24772;DHT22;12870;52.274;9.754;2023-06-10T03:38:22;14.40;99.90
24772;DHT22;12870;52.274;9.754;2023-06-10T03:40:47;14.30;99.90
24772;DHT22;12870;52.274;9.754;2023-06-10T03:43:13;14.30;99.90
24772;DHT22;12870;52.274;9.754;2023-06-10T03:45:39;14.20;99.90
24772;DHT22;12870;52.274;9.754;2023-06-10T03:48:06;14.20;99.90
24772;DHT22;12870;52.274;9.754;2023-06-10T03:50:33;14.20;99.90
24772;DHT22;12870;52.274;9.754;2023-06-10T03:52:59;14.30;99.90
24772;DHT22;12870;52.274;9.754;2023-06-10T03:55:25;14.30;99.90
24772;DHT22;12870;52.274;9.754;2023-06-10T03:57:51;14.30;99.90
24772;DHT22;12870;52.274;9.754;2023-06-10T04:00:17;14.30;99.90
24772;DHT22;12870;52.274;9.754;2023-06-10T04:02:46;14.40;99.90
24772;DHT22;12870;52.274;9.754;2023-06-10T04:05:13;14.40;99.90
24772;DHT22;12870;52.274;9.754;2023-06-10T04:07:39;14.40;99.90
24772;DHT22;12870;52.274;9.754;2023-06-10T04:10:07;14.40;99.90
24772;DHT22;12870;52.274;9.754;2023-06-10T04:12:33;14.50;99.90
24772;DHT22;12870;52.274;9.754;2023-06-10T04:14:58;14.50;99.90
24772;DHT22;12870;52.274;9.754;2023-06-10T04:17:25;14.50;99.90
24772;DHT22;12870;52.274;9.754;2023-06-10T04:19:51;14.60;99.90
24772;DHT22;12870;52.274;9.754;2023-06-10T04:22:18;14.60;99.90
24772;DHT22;12870;52.274;9.754;2023-06-10T04:24:44;14.70;99.90
24772;DHT22;12870;52.274;9.754;2023-06-10T04:27:09;14.70;99.90
24772;DHT22;12870;52.274;9.754;2023-06-10T04:29:35;14.80;99.90
24772;DHT22;12870;52.274;9.754;2023-06-10T04:32:01;14.80;99.90
24772;DHT22;12870;52.274;9.754;2023-06-10T04:34:27;14.80;99.90
24772;DHT22;12870;52.274;9.754;2023-06-10T04:36:53;14.90;99.90
24772;DHT22;12870;52.274;9.754;2023-06-10T04:39:19;14.90;99.90
24772;DHT22;12870;52.274;9.754;2023-06-10T04:41:45;15.00;99.90
24772;DHT22;12870;52.274;9.754;2023-06-10T04:44:12;15.00;99.90
24772;DHT22;12870;52.274;9.754;2023-06-10T04:46:37;14.90;99.90
24772;DHT22;12870;52.274;9.754;2023-06-10T04:49:03;14.90;99.90
24772;DHT22;12870;52.274;9.754;2023-06-10T04:51:30;15.00;99.90
24772;DHT22;12870;52.274;9.754;2023-06-10T04:53:57;15.10;99.90
24772;DHT22;12870;52.274;9.754;2023-06-10T04:56:23;15.20;99.90
24772;DHT22;12870;52.274;9.754;2023-06-10T04:58:49;15.30;99.90
24772;DHT22;12870;52.274;9.754;2023-06-10T05:01:15;15.40;99.90
24772;DHT22;12870;52.274;9.754;2023-06-10T05:03:41;15.50;99.90
24772;DHT22;12870;52.274;9.754;2023-06-10T05:06:06;15.50;99.90
24772;DHT22;12870;52.274;9.754;2023-06-10T05:08:33;15.50;99.90
24772;DHT22;12870;52.274;9.754;2023-06-10T05:10:58;15.60;99.90
24772;DHT22;12870;52.274;9.754;2023-06-10T05:13:24;15.60;99.90
24772;DHT22;12870;52.274;9.754;2023-06-10T05:15:50;15.70;99.90
24772;DHT22;12870;52.274;9.754;2023-06-10T05:18:15;15.70;99.90
24772;DHT22;12870;52.274;9.754;2023-06-10T05:20:41;15.70;99.90
24772;DHT22;12870;52.274;9.754;2023-06-10T05:23:07;15.80;99.90
24772;DHT22;12870;52.274;9.754;2023-06-10T05:25:33;15.80;99.90
24772;DHT22;12870;52.274;9.754;2023-06-10T05:27:59;15.70;99.90
24772;DHT22;12870;52.274;9.754;2023-06-10T05:30:25;15.80;99.90
24772;DHT22;12870;52.274;9.754;2023-06-10T05:32:51;15.90;99.90
24772;DHT22;12870;52.274;9.754;2023-06-10T05:35:18;15.90;99.90
24772;DHT22;12870;52.274;9.754;2023-06-10T05:37:44;15.90;99.90
24772;DHT22;12870;52.274;9.754;2023-06-10T05:40:10;16.00;99.90
24772;DHT22;12870;52.274;9.754;2023-06-10T05:42:37;16.20;99.90
24772;DHT22;12870;52.274;9.754;2023-06-10T05:45:03;16.30;99.90
24772;DHT22;12870;52.274;9.754;2023-06-10T05:47:29;16.30;99.90
24772;DHT22;12870;52.274;9.754;2023-06-10T05:49:54;16.40;99.90
24772;DHT22;12870;52.274;9.754;2023-06-10T05:52:20;16.40;99.90
24772;DHT22;12870;52.274;9.754;2023-06-10T05:54:46;16.40;99.90
24772;DHT22;12870;52.274;9.754;2023-06-10T05:57:12;16.40;99.90
24772;DHT22;12870;52.274;9.754;2023-06-10T05:59:37;16.50;99.90
24772;DHT22;12870;52.274;9.754;2023-06-10T06:02:03;16.60;99.90
24772;DHT22;12870;52.274;9.754;2023-06-10T06:04:29;16.60;99.90
24772;DHT22;12870;52.274;9.754;2023-06-10T06:06:55;16.60;99.90
24772;DHT22;12870;52.274;9.754;2023-06-10T06:09:20;16.60;99.90
24772;DHT22;12870;52.274;9.754;2023-06-10T06:11:46;16.70;99.90
24772;DHT22;12870;52.274;9.754;2023-06-10T06:14:12;16.80;99.90
24772;DHT22;12870;52.274;9.754;2023-06-10T06:16:38;17.00;99.90
24772;DHT22;12870;52.274;9.754;2023-06-10T06:19:04;17.20;99.90
24772;DHT22;12870;52.274;9.754;2023-06-10T06:21:29;17.30;99.90
24772;DHT22;12870;52.274;9.754;2023-06-10T06:23:55;17.40;99.90
24772;DHT22;12870;52.274;9.754;2023-06-10T06:26:21;17.30;99.90
24772;DHT22;12870;52.274;9.754;2023-06-10T06:28:46;17.40;99.90
24772;DHT22;12870;52.274;9.754;2023-06-10T06:31:12;17.40;99.90
24772;DHT22;12870;52.274;9.754;2023-06-10T06:33:37;17.60;99.90
24772;DHT22;12870;52.274;9.754;2023-06-10T06:36:03;17.60;99.90
24772;DHT22;12870;52.274;9.754;2023-06-10T06:38:29;17.70;99.90
24772;DHT22;12870;52.274;9.754;2023-06-10T06:40:55;17.70;99.90
24772;DHT22;12870;52.274;9.754;2023-06-10T06:43:20;17.80;99.90
24772;DHT22;12870;52.274;9.754;2023-06-10T06:45:46;17.90;99.90
24772;DHT22;12870;52.274;9.754;2023-06-10T06:48:12;18.10;99.90
24772;DHT22;12870;52.274;9.754;2023-06-10T06:50:38;18.10;99.90
24772;DHT22;12870;52.274;9.754;2023-06-10T06:53:04;18.20;99.90
24772;DHT22;12870;52.274;9.754;2023-06-10T06:55:30;18.10;99.90
24772;DHT22;12870;52.274;9.754;2023-06-10T06:57:56;18.10;99.90
24772;DHT22;12870;52.274;9.754;2023-06-10T07:00:22;18.20;99.90
24772;DHT22;12870;52.274;9.754;2023-06-10T07:02:48;18.30;99.90
24772;DHT22;12870;52.274;9.754;2023-06-10T07:05:14;18.30;99.90
24772;DHT22;12870;52.274;9.754;2023-06-10T07:07:39;18.30;99.90
24772;DHT22;12870;52.274;9.754;2023-06-10T07:10:05;18.30;99.90
24772;DHT22;12870;52.274;9.754;2023-06-10T07:12:31;18.20;99.90
24772;DHT22;12870;52.274;9.754;2023-06-10T07:14:57;18.20;99.90
24772;DHT22;12870;52.274;9.754;2023-06-10T07:17:22;18.20;99.90
24772;DHT22;12870;52.274;9.754;2023-06-10T07:19:48;18.20;99.90
24772;DHT22;12870;52.274;9.754;2023-06-10T07:22:14;18.20;99.90
24772;DHT22;12870;52.274;9.754;2023-06-10T07:24:40;18.30;99.90
24772;DHT22;12870;52.274;9.754;2023-06-10T07:27:06;18.30;99.90
24772;DHT22;12870;52.274;9.754;2023-06-10T07:29:32;18.30;99.90
24772;DHT22;12870;52.274;9.754;2023-06-10T07:31:58;18.30;99.90
24772;DHT22;12870;52.274;9.754;2023-06-10T07:34:24;18.30;99.90
24772;DHT22;12870;52.274;9.754;2023-06-10T07:36:49;18.30;99.90
24772;DHT22;12870;52.274;9.754;2023-06-10T07:39:15;18.40;99.90
24772;DHT22;12870;52.274;9.754;2023-06-10T07:41:41;18.50;99.90
24772;DHT22;12870;52.274;9.754;2023-06-10T07:44:06;18.60;99.90
24772;DHT22;12870;52.274;9.754;2023-06-10T07:46:32;18.70;99.90
24772;DHT22;12870;52.274;9.754;2023-06-10T07:48:58;18.90;99.90
24772;DHT22;12870;52.274;9.754;2023-06-10T07:51:23;18.90;99.90
24772;DHT22;12870;52.274;9.754;2023-06-10T07:53:49;19.00;99.90
24772;DHT22;12870;52.274;9.754;2023-06-10T07:56:15;19.10;99.90
24772;DHT22;12870;52.274;9.754;2023-06-10T07:58:41;19.10;99.90
24772;DHT22;12870;52.274;9.754;2023-06-10T08:01:06;19.10;99.90
24772;DHT22;12870;52.274;9.754;2023-06-10T08:03:32;19.20;99.90
24772;DHT22;12870;52.274;9.754;2023-06-10T08:05:58;19.10;99.90
24772;DHT22;12870;52.274;9.754;2023-06-10T08:08:24;19.10;99.90
24772;DHT22;12870;52.274;9.754;2023-06-10T08:10:50;19.20;99.90
24772;DHT22;12870;52.274;9.754;2023-06-10T08:13:15;19.30;99.90
24772;DHT22;12870;52.274;9.754;2023-06-10T08:15:41;19.40;99.90
24772;DHT22;12870;52.274;9.754;2023-06-10T08:18:06;19.50;99.90
24772;DHT22;12870;52.274;9.754;2023-06-10T08:20:32;19.70;99.90
24772;DHT22;12870;52.274;9.754;2023-06-10T08:22:58;19.90;99.90
24772;DHT22;12870;52.274;9.754;2023-06-10T08:25:23;20.00;99.90
24772;DHT22;12870;52.274;9.754;2023-06-10T08:27:49;20.20;99.90
24772;DHT22;12870;52.274;9.754;2023-06-10T08:30:16;20.40;99.90
24772;DHT22;12870;52.274;9.754;2023-06-10T08:32:42;20.60;99.90
24772;DHT22;12870;52.274;9.754;2023-06-10T08:35:08;20.80;99.90
24772;DHT22;12870;52.274;9.754;2023-06-10T08:37:33;20.80;99.90
24772;DHT22;12870;52.274;9.754;2023-06-10T08:39:59;20.90;99.90
24772;DHT22;12870;52.274;9.754;2023-06-10T08:43:14;21.00;99.90
24772;DHT22;12870;52.274;9.754;2023-06-10T08:45:18;21.20;99.90
24772;DHT22;12870;52.274;9.754;2023-06-10T08:47:45;21.40;99.90
24772;DHT22;12870;52.274;9.754;2023-06-10T08:50:11;21.60;99.90
24772;DHT22;12870;52.274;9.754;2023-06-10T08:52:42;21.80;99.90
24772;DHT22;12870;52.274;9.754;2023-06-10T08:55:15;22.10;99.90
24772;DHT22;12870;52.274;9.754;2023-06-10T08:57:43;22.40;99.90
24772;DHT22;12870;52.274;9.754;2023-06-10T09:00:11;22.70;99.90
24772;DHT22;12870;52.274;9.754;2023-06-10T09:02:38;23.00;99.90
24772;DHT22;12870;52.274;9.754;2023-06-10T09:05:04;23.10;99.90
24772;DHT22;12870;52.274;9.754;2023-06-10T09:07:31;23.30;99.90
24772;DHT22;12870;52.274;9.754;2023-06-10T09:09:57;23.40;99.90
24772;DHT22;12870;52.274;9.754;2023-06-10T09:12:24;23.70;99.90
24772;DHT22;12870;52.274;9.754;2023-06-10T09:14:50;23.90;99.90
24772;DHT22;12870;52.274;9.754;2023-06-10T09:17:16;24.10;99.90
24772;DHT22;12870;52.274;9.754;2023-06-10T09:19:44;24.40;99.90
24772;DHT22;12870;52.274;9.754;2023-06-10T09:22:10;24.70;99.90
24772;DHT22;12870;52.274;9.754;2023-06-10T09:24:36;24.80;99.90
24772;DHT22;12870;52.274;9.754;2023-06-10T09:27:06;25.00;99.90
24772;DHT22;12870;52.274;9.754;2023-06-10T09:29:54;25.10;99.90
24772;DHT22;12870;52.274;9.754;2023-06-10T09:32:20;25.30;99.90
24772;DHT22;12870;52.274;9.754;2023-06-10T09:34:47;25.50;99.90
24772;DHT22;12870;52.274;9.754;2023-06-10T09:37:19;25.70;99.90
24772;DHT22;12870;52.274;9.754;2023-06-10T09:39:45;25.80;99.90
24772;DHT22;12870;52.274;9.754;2023-06-10T09:42:25;25.90;99.90
24772;DHT22;12870;52.274;9.754;2023-06-10T09:44:52;26.00;99.90
24772;DHT22;12870;52.274;9.754;2023-06-10T09:47:21;26.20;99.90
24772;DHT22;12870;52.274;9.754;2023-06-10T09:49:48;26.30;99.90
24772;DHT22;12870;52.274;9.754;2023-06-10T09:52:14;26.60;99.90
24772;DHT22;12870;52.274;9.754;2023-06-10T09:54:46;26.90;99.90
24772;DHT22;12870;52.274;9.754;2023-06-10T09:57:12;26.80;99.90
24772;DHT22;12870;52.274;9.754;2023-06-10T09:59:37;26.90;99.90
24772;DHT22;12870;52.274;9.754;2023-06-10T10:02:03;27.00;99.90
24772;DHT22;12870;52.274;9.754;2023-06-10T10:04:30;27.00;99.90
24772;DHT22;12870;52.274;9.754;2023-06-10T10:06:56;27.20;99.90
24772;DHT22;12870;52.274;9.754;2023-06-10T10:09:21;27.30;99.90
24772;DHT22;12870;52.274;9.754;2023-06-10T10:11:48;27.50;99.90
24772;DHT22;12870;52.274;9.754;2023-06-10T10:14:16;27.70;99.90
24772;DHT22;12870;52.274;9.754;2023-06-10T10:16:45;27.70;99.90
24772;DHT22;12870;52.274;9.754;2023-06-10T10:19:19;27.90;99.90
24772;DHT22;12870;52.274;9.754;2023-06-10T10:22:04;27.90;99.90
24772;DHT22;12870;52.274;9.754;2023-06-10T10:24:35;27.80;99.90
24772;DHT22;12870;52.274;9.754;2023-06-10T10:27:06;28.00;99.90
24772;DHT22;12870;52.274;9.754;2023-06-10T10:29:39;28.20;99.90
24772;DHT22;12870;52.274;9.754;2023-06-10T10:32:06;28.20;99.90
24772;DHT22;12870;52.274;9.754;2023-06-10T10:34:56;28.40;99.90
24772;DHT22;12870;52.274;9.754;2023-06-10T10:37:26;28.80;99.90
24772;DHT22;12870;52.274;9.754;2023-06-10T10:39:52;28.90;99.90
24772;DHT22;12870;52.274;9.754;2023-06-10T10:42:18;29.10;99.90
24772;DHT22;12870;52.274;9.754;2023-06-10T10:44:44;29.20;99.90
24772;DHT22;12870;52.274;9.754;2023-06-10T10:47:11;29.50;99.90
24772;DHT22;12870;52.274;9.754;2023-06-10T10:49:38;29.70;99.90
24772;DHT22;12870;52.274;9.754;2023-06-10T10:52:04;29.70;99.90
24772;DHT22;12870;52.274;9.754;2023-06-10T10:54:34;29.80;99.90
24772;DHT22;12870;52.274;9.754;2023-06-10T10:59:58;30.10;99.90
24772;DHT22;12870;52.274;9.754;2023-06-10T11:02:45;30.30;99.90
24772;DHT22;12870;52.274;9.754;2023-06-10T11:05:14;30.30;99.90
24772;DHT22;12870;52.274;9.754;2023-06-10T11:07:40;30.70;99.90
24772;DHT22;12870;52.274;9.754;2023-06-10T11:10:16;30.80;99.90
24772;DHT22;12870;52.274;9.754;2023-06-10T11:12:53;30.80;99.90
24772;DHT22;12870;52.274;9.754;2023-06-10T11:15:23;31.20;99.90
24772;DHT22;12870;52.274;9.754;2023-06-10T11:21:03;31.00;99.90
24772;DHT22;12870;52.274;9.754;2023-06-10T11:26:20;31.20;99.90
24772;DHT22;12870;52.274;9.754;2023-06-10T11:31:28;32.10;99.90
24772;DHT22;12870;52.274;9.754;2023-06-10T11:33:57;32.10;99.90
24772;DHT22;12870;52.274;9.754;2023-06-10T11:36:24;32.10;99.30
24772;DHT22;12870;52.274;9.754;2023-06-10T11:38:57;32.30;99.20
24772;DHT22;12870;52.274;9.754;2023-06-10T11:41:27;32.50;99.00
24772;DHT22;12870;52.274;9.754;2023-06-10T11:43:57;32.70;97.70
24772;DHT22;12870;52.274;9.754;2023-06-10T11:46:26;32.80;97.90
24772;DHT22;12870;52.274;9.754;2023-06-10T11:48:57;33.10;98.20
24772;DHT22;12870;52.274;9.754;2023-06-10T11:51:29;33.00;96.60
24772;DHT22;12870;52.274;9.754;2023-06-10T11:53:55;32.90;96.10
24772;DHT22;12870;52.274;9.754;2023-06-10T11:58:56;33.20;95.20
24772;DHT22;12870;52.274;9.754;2023-06-10T12:01:23;33.20;96.00
24772;DHT22;12870;52.274;9.754;2023-06-10T12:04:00;33.50;95.00
24772;DHT22;12870;52.274;9.754;2023-06-10T12:06:26;33.50;94.40
24772;DHT22;12870;52.274;9.754;2023-06-10T12:08:53;33.40;93.30
24772;DHT22;12870;52.274;9.754;2023-06-10T12:11:18;33.60;94.10
24772;DHT22;12870;52.274;9.754;2023-06-10T12:13:49;33.90;93.70
24772;DHT22;12870;52.274;9.754;2023-06-10T12:16:16;34.00;92.40
24772;DHT22;12870;52.274;9.754;2023-06-10T12:18:45;34.10;92.30
24772;DHT22;12870;52.274;9.754;2023-06-10T12:21:23;34.30;91.70
24772;DHT22;12870;52.274;9.754;2023-06-10T12:24:06;34.30;90.60
24772;DHT22;12870;52.274;9.754;2023-06-10T12:26:42;34.50;90.10
24772;DHT22;12870;52.274;9.754;2023-06-10T12:29:28;34.30;87.90
24772;DHT22;12870;52.274;9.754;2023-06-10T12:32:02;33.90;87.40
24772;DHT22;12870;52.274;9.754;2023-06-10T12:34:38;34.00;87.90
24772;DHT22;12870;52.274;9.754;2023-06-10T12:37:12;33.70;85.60
24772;DHT22;12870;52.274;9.754;2023-06-10T12:39:41;33.80;90.00
24772;DHT22;12870;52.274;9.754;2023-06-10T12:42:09;33.90;87.40
24772;DHT22;12870;52.274;9.754;2023-06-10T12:44:38;33.90;87.70
24772;DHT22;12870;52.274;9.754;2023-06-10T12:47:08;34.00;85.50
24772;DHT22;12870;52.274;9.754;2023-06-10T12:49:36;34.10;85.30
24772;DHT22;12870;52.274;9.754;2023-06-10T12:52:02;34.10;84.80
24772;DHT22;12870;52.274;9.754;2023-06-10T12:54:27;34.20;86.40
24772;DHT22;12870;52.274;9.754;2023-06-10T12:56:53;34.20;84.10
24772;DHT22;12870;52.274;9.754;2023-06-10T12:59:19;34.40;85.10
24772;DHT22;12870;52.274;9.754;2023-06-10T13:01:50;34.90;85.40
24772;DHT22;12870;52.274;9.754;2023-06-10T13:04:17;35.00;81.80
24772;DHT22;12870;52.274;9.754;2023-06-10T13:06:44;34.90;80.80
24772;DHT22;12870;52.274;9.754;2023-06-10T13:09:09;34.70;76.30
24772;DHT22;12870;52.274;9.754;2023-06-10T13:11:36;34.70;77.30
24772;DHT22;12870;52.274;9.754;2023-06-10T13:14:02;34.60;78.30
24772;DHT22;12870;52.274;9.754;2023-06-10T13:16:30;34.60;77.90
24772;DHT22;12870;52.274;9.754;2023-06-10T13:18:56;34.80;77.80
24772;DHT22;12870;52.274;9.754;2023-06-10T13:21:21;34.90;76.40
24772;DHT22;12870;52.274;9.754;2023-06-10T13:23:47;35.00;76.10
24772;DHT22;12870;52.274;9.754;2023-06-10T13:26:14;35.10;75.60
24772;DHT22;12870;52.274;9.754;2023-06-10T13:28:42;35.10;74.10
24772;DHT22;12870;52.274;9.754;2023-06-10T13:31:07;35.20;73.00
24772;DHT22;12870;52.274;9.754;2023-06-10T13:33:33;35.10;72.50
24772;DHT22;12870;52.274;9.754;2023-06-10T13:35:59;35.30;70.40
24772;DHT22;12870;52.274;9.754;2023-06-10T13:38:25;35.30;68.20
24772;DHT22;12870;52.274;9.754;2023-06-10T13:40:50;35.50;70.80
24772;DHT22;12870;52.274;9.754;2023-06-10T13:43:16;35.50;70.60
24772;DHT22;12870;52.274;9.754;2023-06-10T13:45:42;35.70;70.90
24772;DHT22;12870;52.274;9.754;2023-06-10T13:48:08;35.80;71.30
24772;DHT22;12870;52.274;9.754;2023-06-10T13:50:33;35.90;70.40
24772;DHT22;12870;52.274;9.754;2023-06-10T13:52:59;35.90;66.00
24772;DHT22;12870;52.274;9.754;2023-06-10T13:55:25;35.60;64.80
24772;DHT22;12870;52.274;9.754;2023-06-10T13:57:51;35.80;65.80
24772;DHT22;12870;52.274;9.754;2023-06-10T14:00:17;35.80;67.40
24772;DHT22;12870;52.274;9.754;2023-06-10T14:02:42;35.90;65.30
24772;DHT22;12870;52.274;9.754;2023-06-10T14:05:08;36.00;66.00
24772;DHT22;12870;52.274;9.754;2023-06-10T14:07:34;35.90;66.00
24772;DHT22;12870;52.274;9.754;2023-06-10T14:10:00;35.80;65.60
24772;DHT22;12870;52.274;9.754;2023-06-10T14:12:26;35.70;65.90
24772;DHT22;12870;52.274;9.754;2023-06-10T14:14:52;35.50;63.90
24772;DHT22;12870;52.274;9.754;2023-06-10T14:17:17;35.50;62.80
24772;DHT22;12870;52.274;9.754;2023-06-10T14:19:43;35.70;63.50
24772;DHT22;12870;52.274;9.754;2023-06-10T14:22:09;35.90;64.90
24772;DHT22;12870;52.274;9.754;2023-06-10T14:24:35;35.90;61.30
24772;DHT22;12870;52.274;9.754;2023-06-10T14:27:01;35.90;61.50
24772;DHT22;12870;52.274;9.754;2023-06-10T14:29:27;35.90;63.10
24772;DHT22;12870;52.274;9.754;2023-06-10T14:31:55;36.00;62.70
24772;DHT22;12870;52.274;9.754;2023-06-10T14:34:20;36.10;64.10
24772;DHT22;12870;52.274;9.754;2023-06-10T14:36:47;35.90;60.50
24772;DHT22;12870;52.274;9.754;2023-06-10T14:39:12;35.70;60.90
24772;DHT22;12870;52.274;9.754;2023-06-10T14:41:38;35.80;59.00
24772;DHT22;12870;52.274;9.754;2023-06-10T14:44:03;35.80;61.20
24772;DHT22;12870;52.274;9.754;2023-06-10T14:46:29;35.80;60.40
24772;DHT22;12870;52.274;9.754;2023-06-10T14:48:55;35.90;60.10
24772;DHT22;12870;52.274;9.754;2023-06-10T14:51:20;35.90;59.90
24772;DHT22;12870;52.274;9.754;2023-06-10T14:53:46;35.70;57.30
24772;DHT22;12870;52.274;9.754;2023-06-10T14:56:12;35.50;57.70
24772;DHT22;12870;52.274;9.754;2023-06-10T14:58:38;35.50;56.70
24772;DHT22;12870;52.274;9.754;2023-06-10T15:01:04;35.50;59.20
24772;DHT22;12870;52.274;9.754;2023-06-10T15:03:29;35.60;57.90
24772;DHT22;12870;52.274;9.754;2023-06-10T15:05:55;35.60;56.80
24772;DHT22;12870;52.274;9.754;2023-06-10T15:08:21;35.60;56.60
24772;DHT22;12870;52.274;9.754;2023-06-10T15:10:46;35.80;57.70
24772;DHT22;12870;52.274;9.754;2023-06-10T15:13:13;35.80;56.50
24772;DHT22;12870;52.274;9.754;2023-06-10T15:15:39;35.80;56.40
24772;DHT22;12870;52.274;9.754;2023-06-10T15:18:05;35.80;56.50
24772;DHT22;12870;52.274;9.754;2023-06-10T15:20:30;35.40;58.00
24772;DHT22;12870;52.274;9.754;2023-06-10T15:22:56;35.20;55.80
24772;DHT22;12870;52.274;9.754;2023-06-10T15:25:22;35.30;56.30
24772;DHT22;12870;52.274;9.754;2023-06-10T15:27:47;35.30;54.60
24772;DHT22;12870;52.274;9.754;2023-06-10T15:30:13;35.30;56.70
24772;DHT22;12870;52.274;9.754;2023-06-10T15:32:39;35.10;57.50
24772;DHT22;12870;52.274;9.754;2023-06-10T15:35:05;35.00;58.50
24772;DHT22;12870;52.274;9.754;2023-06-10T15:37:31;35.20;57.10
24772;DHT22;12870;52.274;9.754;2023-06-10T15:39:56;35.20;55.90
24772;DHT22;12870;52.274;9.754;2023-06-10T15:42:22;35.30;54.30
24772;DHT22;12870;52.274;9.754;2023-06-10T15:44:49;35.20;55.50
24772;DHT22;12870;52.274;9.754;2023-06-10T15:47:14;35.30;55.30